createdAt,value
2018-12-14T00:00:14.293Z,99.90
2018-12-14T00:05:19.976Z,99.90
2018-12-14T00:10:25.554Z,99.90
2018-12-14T00:15:28.992Z,99.90
2018-12-14T00:20:32.497Z,99.90
2018-12-14T00:25:36.180Z,99.90
2018-12-14T00:30:39.664Z,99.90
2018-12-14T00:35:43.683Z,99.90
2018-12-14T00:40:47.450Z,99.90
2018-12-14T00:45:51.063Z,99.90
2018-12-14T00:50:54.582Z,99.90
2018-12-14T00:55:58.328Z,99.90
2018-12-14T01:01:01.828Z,99.90
2018-12-14T01:06:05.377Z,99.90
2018-12-14T01:11:08.995Z,99.90
2018-12-14T01:16:12.638Z,99.90
2018-12-14T01:21:16.146Z,99.90
2018-12-14T01:26:19.978Z,99.90
2018-12-14T01:31:23.895Z,99.90
2018-12-14T01:36:27.392Z,99.90
2018-12-14T01:41:30.987Z,99.90
2018-12-14T01:46:34.533Z,99.90
2018-12-14T01:51:38.110Z,99.90
2018-12-14T01:56:41.528Z,99.90
2018-12-14T02:01:45.142Z,99.90
2018-12-14T02:06:48.617Z,99.90
2018-12-14T02:11:52.176Z,99.90
2018-12-14T02:16:55.791Z,99.90
2018-12-14T02:21:59.256Z,99.90
2018-12-14T02:27:02.830Z,99.90
2018-12-14T02:32:06.311Z,99.90
2018-12-14T02:37:10.822Z,99.90
2018-12-14T02:42:19.268Z,99.90
2018-12-14T02:47:19.913Z,99.90
2018-12-14T02:52:23.453Z,99.90
2018-12-14T02:57:27.131Z,99.90
2018-12-14T03:02:30.639Z,99.90
2018-12-14T03:07:34.249Z,99.90
2018-12-14T03:12:37.720Z,99.90
2018-12-14T03:17:41.316Z,99.90
2018-12-14T03:22:44.795Z,99.90
2018-12-14T03:27:48.279Z,99.90
2018-12-14T03:32:51.856Z,99.90
2018-12-14T03:37:55.541Z,99.90
2018-12-14T03:42:59.541Z,99.90
2018-12-14T03:48:03.213Z,99.90
2018-12-14T03:53:06.688Z,99.90
2018-12-14T03:58:10.163Z,99.90
2018-12-14T04:03:13.686Z,99.90
2018-12-14T04:08:18.180Z,99.90
2018-12-14T04:13:21.663Z,99.90
2018-12-14T04:18:25.278Z,99.90
2018-12-14T04:23:29.015Z,99.90
2018-12-14T04:28:32.496Z,99.90
2018-12-14T04:33:36.399Z,99.90
2018-12-14T04:38:39.853Z,99.90
2018-12-14T04:43:43.372Z,99.90
2018-12-14T04:48:46.818Z,99.90
2018-12-14T04:53:50.256Z,99.90
2018-12-14T04:58:53.711Z,99.90
2018-12-14T05:03:57.169Z,99.90
2018-12-14T05:09:00.684Z,99.90
2018-12-14T05:14:04.451Z,99.90
2018-12-14T05:19:09.045Z,99.90
2018-12-14T05:24:12.604Z,99.90
2018-12-14T05:29:16.157Z,99.90
2018-12-14T05:34:19.780Z,99.90
2018-12-14T05:39:23.315Z,99.90
2018-12-14T05:44:26.924Z,99.90
2018-12-14T05:49:30.625Z,99.90
2018-12-14T05:54:36.161Z,99.90
2018-12-14T05:59:39.749Z,99.90
2018-12-14T06:04:43.254Z,99.90
2018-12-14T06:09:46.732Z,99.90
2018-12-14T06:14:50.277Z,99.90
2018-12-14T06:19:53.757Z,99.90
2018-12-14T06:24:57.275Z,99.90
2018-12-14T06:30:00.705Z,99.90
2018-12-14T06:35:05.162Z,99.90
2018-12-14T06:40:08.801Z,99.90
2018-12-14T06:45:12.846Z,99.90
2018-12-14T06:50:16.505Z,99.90
2018-12-14T06:55:20.996Z,99.90
2018-12-14T07:00:27.793Z,99.90
2018-12-14T07:05:31.325Z,99.90
2018-12-14T07:10:34.860Z,99.90
2018-12-14T07:15:38.386Z,99.90
2018-12-14T07:20:42.350Z,99.80
2018-12-14T07:25:46.105Z,99.90
2018-12-14T07:30:49.657Z,99.90
2018-12-14T07:35:53.091Z,99.90
2018-12-14T07:40:56.764Z,99.90
2018-12-14T07:46:00.261Z,99.90
2018-12-14T07:51:04.237Z,99.90
2018-12-14T07:56:07.815Z,99.80
2018-12-14T08:01:11.489Z,99.50
2018-12-14T08:06:15.059Z,99.90
2018-12-14T08:11:18.809Z,99.90
2018-12-14T08:16:22.397Z,99.40
2018-12-14T08:21:26.087Z,99.50
2018-12-14T08:26:29.655Z,99.60
2018-12-14T08:31:33.188Z,99.60
2018-12-14T08:36:37.006Z,98.90
2018-12-14T08:41:40.590Z,99.30
2018-12-14T08:46:44.096Z,98.60
2018-12-14T08:51:47.792Z,97.30
2018-12-14T08:56:51.590Z,97.40
2018-12-14T09:01:55.096Z,97.60
2018-12-14T09:06:58.615Z,98.50
2018-12-14T09:12:02.170Z,98.60
2018-12-14T09:17:05.956Z,98.40
2018-12-14T09:22:09.520Z,97.80
2018-12-14T09:27:12.970Z,97.60
2018-12-14T09:32:16.441Z,97.80
2018-12-14T09:37:20.025Z,97.50
2018-12-14T09:42:23.690Z,97.60
2018-12-14T09:47:27.212Z,96.90
2018-12-14T09:52:30.757Z,95.30
2018-12-14T09:57:34.546Z,95.10
2018-12-14T10:02:38.224Z,93.60
2018-12-14T10:07:46.800Z,91.70
2018-12-14T10:12:47.482Z,91.00
2018-12-14T10:17:51.040Z,89.00
2018-12-14T10:22:54.922Z,88.10
2018-12-14T10:27:58.495Z,87.90
2018-12-14T10:33:01.983Z,87.40
2018-12-14T10:38:05.471Z,87.00
2018-12-14T10:43:09.174Z,86.60
2018-12-14T10:48:12.789Z,84.60
2018-12-14T10:53:16.405Z,84.00
2018-12-14T10:58:20.467Z,83.90
2018-12-14T11:03:24.319Z,80.60
2018-12-14T11:08:27.772Z,82.60
2018-12-14T11:13:31.320Z,84.50
2018-12-14T11:18:34.796Z,82.20
2018-12-14T11:23:38.510Z,81.20
2018-12-14T11:28:42.292Z,82.90
2018-12-14T11:33:45.987Z,82.00
2018-12-14T11:38:49.557Z,81.40
2018-12-14T11:43:53.055Z,82.20
2018-12-14T11:48:56.610Z,81.00
2018-12-14T11:54:00.340Z,81.60
2018-12-14T11:59:04.126Z,83.70
2018-12-14T12:04:07.731Z,84.10
2018-12-14T12:09:12.565Z,84.30
2018-12-14T12:14:16.163Z,84.70
2018-12-14T12:19:19.733Z,85.40
2018-12-14T12:24:23.358Z,85.40
2018-12-14T12:29:26.862Z,87.20
2018-12-14T12:34:31.654Z,86.80
2018-12-14T12:39:35.193Z,87.30
2018-12-14T12:44:39.698Z,87.40
2018-12-14T12:49:44.446Z,86.90
2018-12-14T12:54:48.146Z,86.30
2018-12-14T12:59:51.991Z,87.30
2018-12-14T13:04:55.845Z,86.60
2018-12-14T13:09:59.357Z,87.70
2018-12-14T13:15:02.991Z,86.40
2018-12-14T13:20:07.130Z,88.30
2018-12-14T13:25:10.762Z,88.80
2018-12-14T13:30:14.529Z,88.50
2018-12-14T13:35:18.157Z,87.80
2018-12-14T13:40:21.842Z,88.80
2018-12-14T13:45:25.622Z,88.10
2018-12-14T13:50:29.118Z,86.30
2018-12-14T13:55:32.717Z,86.20
2018-12-14T14:00:36.350Z,86.20
2018-12-14T14:05:39.892Z,87.20
2018-12-14T14:10:43.361Z,85.80
2018-12-14T14:15:50.719Z,87.80
2018-12-14T14:20:52.614Z,89.50
2018-12-14T14:25:56.316Z,90.00
2018-12-14T14:30:59.928Z,90.30
2018-12-14T14:36:03.547Z,90.20
2018-12-14T14:41:07.123Z,90.90
2018-12-14T14:46:10.642Z,90.70
2018-12-14T14:51:14.608Z,91.10
2018-12-14T14:56:18.226Z,90.90
2018-12-14T15:01:21.966Z,91.30
2018-12-14T15:06:25.501Z,91.50
2018-12-14T15:11:29.137Z,91.70
2018-12-14T15:16:35.543Z,92.10
2018-12-14T15:21:39.093Z,92.20
2018-12-14T15:26:42.571Z,92.70
2018-12-14T15:31:46.766Z,93.00
2018-12-14T15:36:51.058Z,92.30
2018-12-14T15:41:55.569Z,92.60
2018-12-14T15:46:59.198Z,92.90
2018-12-14T15:52:03.164Z,92.60
2018-12-14T15:57:06.761Z,92.50
2018-12-14T16:02:10.232Z,92.30
2018-12-14T16:07:14.148Z,92.40
2018-12-14T16:12:17.711Z,92.40
2018-12-14T16:17:21.374Z,92.90
2018-12-14T16:22:24.947Z,92.60
2018-12-14T16:27:28.667Z,92.20
2018-12-14T16:32:32.289Z,92.40
2018-12-14T16:37:35.851Z,92.00
2018-12-14T16:42:39.327Z,91.90
2018-12-14T16:47:42.835Z,92.00
2018-12-14T16:52:47.623Z,92.20
2018-12-14T16:57:51.482Z,92.70
2018-12-14T17:02:54.945Z,92.80
2018-12-14T17:07:59.458Z,92.90
2018-12-14T17:13:03.313Z,92.90
2018-12-14T17:18:06.680Z,93.20
2018-12-14T17:23:10.268Z,93.20
2018-12-14T17:28:13.874Z,93.20
2018-12-14T17:33:17.485Z,93.20
2018-12-14T17:38:22.576Z,93.70
2018-12-14T17:43:28.264Z,94.00
2018-12-14T17:48:31.979Z,94.30
2018-12-14T17:53:35.419Z,94.20
2018-12-14T17:58:40.315Z,94.00
2018-12-14T18:03:44.397Z,93.80
2018-12-14T18:08:48.262Z,93.90
2018-12-14T18:13:51.717Z,94.00
2018-12-14T18:18:55.238Z,94.20
2018-12-14T18:23:58.789Z,94.60
2018-12-14T18:29:02.359Z,94.70
2018-12-14T18:34:05.828Z,95.00
2018-12-14T18:39:09.397Z,95.10
2018-12-14T18:44:12.923Z,95.10
2018-12-14T18:49:16.812Z,95.00
2018-12-14T18:54:20.811Z,95.30
2018-12-14T18:59:24.676Z,95.10
2018-12-14T19:04:28.219Z,95.00
2018-12-14T19:09:32.270Z,94.80
2018-12-14T19:14:35.684Z,94.70
2018-12-14T19:19:39.183Z,94.90
2018-12-14T19:24:42.614Z,94.70
2018-12-14T19:29:46.365Z,95.00
2018-12-14T19:34:49.827Z,94.90
2018-12-14T19:39:53.365Z,94.90
2018-12-14T19:44:56.855Z,95.70
2018-12-14T19:50:00.299Z,95.00
2018-12-14T19:55:04.820Z,95.00
2018-12-14T20:00:10.846Z,95.10
2018-12-14T20:05:14.411Z,94.90
2018-12-14T20:10:17.921Z,94.80
2018-12-14T20:15:21.476Z,94.80
2018-12-14T20:20:24.916Z,94.70
2018-12-14T20:25:28.418Z,94.60
2018-12-14T20:30:32.596Z,94.70
2018-12-14T20:35:36.103Z,94.30
2018-12-14T20:40:39.663Z,94.00
2018-12-14T20:45:43.074Z,93.70
2018-12-14T20:50:46.582Z,94.10
2018-12-14T20:55:50.115Z,94.00
2018-12-14T21:00:53.664Z,93.70
2018-12-14T21:05:57.132Z,93.70
2018-12-14T21:11:00.666Z,93.50
2018-12-14T21:16:04.264Z,93.60
2018-12-14T21:21:07.958Z,93.40
2018-12-14T21:26:11.503Z,93.30
2018-12-14T21:31:15.017Z,93.50
2018-12-14T21:36:18.570Z,93.30
2018-12-14T21:41:22.380Z,92.90
2018-12-14T21:46:32.635Z,92.60
2018-12-14T21:51:34.257Z,92.70
2018-12-14T21:56:38.058Z,92.80
2018-12-14T22:01:41.646Z,93.00
2018-12-14T22:06:45.107Z,93.00
2018-12-14T22:11:48.576Z,92.80
2018-12-14T22:16:52.059Z,92.70
2018-12-14T22:21:55.658Z,92.90
2018-12-14T22:27:00.469Z,92.20
2018-12-14T22:32:04.057Z,91.90
2018-12-14T22:37:07.914Z,92.60
2018-12-14T22:42:11.403Z,92.20
2018-12-14T22:47:14.936Z,92.10
2018-12-14T22:52:19.149Z,92.80
2018-12-14T22:57:24.269Z,91.90
2018-12-14T23:02:27.881Z,92.60
2018-12-14T23:07:32.325Z,92.10
2018-12-14T23:12:36.137Z,92.40
2018-12-14T23:17:39.801Z,92.10
2018-12-14T23:22:43.724Z,92.00
2018-12-14T23:27:47.358Z,91.90
2018-12-14T23:32:50.907Z,91.70
2018-12-14T23:37:54.388Z,91.80
2018-12-14T23:42:57.853Z,92.10
2018-12-14T23:48:01.902Z,92.10
2018-12-14T23:53:06.213Z,91.90
2018-12-14T23:58:09.841Z,91.60
